Time;durP1;ratioP1;P1;durP2;ratioP2;P2;SDS_P1;SDS_P2;PMS_P1;PMS_P2;Temp;Humidity;BMP_temperature;BMP_pressure;BME280_temperature;BME280_humidity;BME280_pressure;Samples;Min_cycle;Max_cycle;Signal;HPM_P1;HPM_P2
2022/08/20 00:00:36;;;;;;;3.03;1.92;;;24.10;69.60;;;;;;5081378;28;20047;-70
2022/08/20 00:03:08;;;;;;;3.87;2.50;;;24.10;69.60;;;;;;5090681;28;20058;-71
2022/08/20 00:05:38;;;;;;;3.20;2.13;;;24.10;69.70;;;;;;5092654;28;20052;-70
2022/08/20 00:08:04;;;;;;;3.80;2.20;;;24.10;69.70;;;;;;5092529;28;20513;-70
2022/08/20 00:10:30;;;;;;;3.05;2.10;;;24.10;69.60;;;;;;5091654;28;20043;-70
2022/08/20 00:12:56;;;;;;;3.10;1.95;;;24.10;69.60;;;;;;5092473;28;20472;-70
2022/08/20 00:15:24;;;;;;;3.28;2.22;;;24.10;69.60;;;;;;5092162;28;20051;-70
2022/08/20 00:17:50;;;;;;;;;;;24.10;69.60;;;;;;5091811;28;20376;-70
2022/08/20 00:20:16;;;;;;;4.43;2.25;;;24.00;69.50;;;;;;5092071;28;19927;-71
2022/08/20 00:22:42;;;;;;;5.30;2.40;;;24.00;69.70;;;;;;5091115;28;20044;-71
2022/08/20 00:25:08;;;;;;;4.22;2.22;;;24.00;69.70;;;;;;5090242;28;20032;-71
2022/08/20 00:27:33;;;;;;;3.72;2.28;;;24.00;69.70;;;;;;5092157;28;20164;-70
2022/08/20 00:29:59;;;;;;;2.78;2.03;;;24.00;69.70;;;;;;5092270;28;20072;-70
2022/08/20 00:32:24;;;;;;;3.97;2.50;;;24.00;69.70;;;;;;5091107;28;20060;-70
2022/08/20 00:34:50;;;;;;;4.53;2.22;;;24.00;69.70;;;;;;5092321;28;20525;-70
2022/08/20 00:37:15;;;;;;;5.07;2.28;;;24.00;69.70;;;;;;5090543;28;20048;-71
2022/08/20 00:39:41;;;;;;;5.45;2.40;;;24.00;69.70;;;;;;5091727;28;20047;-70
2022/08/20 00:42:06;;;;;;;3.75;1.88;;;24.00;69.80;;;;;;5092487;28;20040;-71
2022/08/20 00:44:32;;;;;;;6.07;2.38;;;24.00;69.70;;;;;;5091264;28;20040;-70
2022/08/20 00:46:58;;;;;;;3.65;1.92;;;24.00;69.70;;;;;;5092040;28;20089;-70
2022/08/20 00:49:26;;;;;;;3.08;2.05;;;24.10;69.80;;;;;;5091789;28;20048;-70
2022/08/20 00:51:56;;;;;;;3.97;1.90;;;24.00;69.70;;;;;;5091155;28;20036;-70
2022/08/20 00:54:42;;;;;;;4.82;2.30;;;24.00;69.70;;;;;;5090936;28;20036;-70
2022/08/20 00:57:25;;;;;;;4.05;2.10;;;24.00;69.70;;;;;;5092193;28;20122;-70
2022/08/20 00:59:50;;;;;;;4.00;2.33;;;24.00;69.80;;;;;;5090339;28;20094;-70
2022/08/20 01:02:16;;;;;;;4.10;2.25;;;24.00;69.70;;;;;;5090148;28;20416;-70
2022/08/20 01:04:54;;;;;;;4.63;2.80;;;24.00;69.70;;;;;;5092692;28;20028;-70
2022/08/20 01:07:23;;;;;;;3.67;2.13;;;24.00;69.70;;;;;;5095153;28;20593;-69
2022/08/20 01:09:48;;;;;;;3.30;2.15;;;24.00;69.70;;;;;;5095941;28;20032;-69
2022/08/20 01:12:14;;;;;;;2.70;1.83;;;24.00;69.70;;;;;;5095355;28;20189;-70
2022/08/20 01:14:43;;;;;;;3.88;1.70;;;24.00;69.80;;;;;;5093807;28;20036;-70
2022/08/20 01:17:12;;;;;;;4.28;2.20;;;24.00;69.80;;;;;;5094633;28;20052;-70
2022/08/20 01:19:42;;;;;;;2.75;2.00;;;24.00;69.70;;;;;;5093549;28;20036;-71
2022/08/20 01:24:53;;;;;;;3.50;1.88;;;24.00;69.70;;;;;;5095508;28;20498;-71
2022/08/20 01:27:19;;;;;;;3.38;1.98;;;24.00;69.70;;;;;;5093096;28;20054;-70
2022/08/20 01:29:44;;;;;;;2.35;1.63;;;24.00;69.80;;;;;;5110875;28;20056;-71
2022/08/20 01:32:10;;;;;;;3.70;2.15;;;24.00;69.80;;;;;;5093851;28;20048;-70
2022/08/20 01:34:35;;;;;;;3.38;1.90;;;24.00;69.70;;;;;;5094505;28;20036;-70
2022/08/20 01:37:01;;;;;;;3.97;2.40;;;24.00;69.70;;;;;;5095161;28;20641;-70
2022/08/20 01:39:29;;;;;;;4.65;2.15;;;24.00;69.70;;;;;;5094991;28;20153;-70
2022/08/20 01:42:14;;;;;;;3.22;2.17;;;24.00;69.70;;;;;;5094257;28;20488;-70
2022/08/20 01:44:41;;;;;;;3.30;1.80;;;24.00;69.70;;;;;;5094408;28;20048;-70
2022/08/20 01:47:08;;;;;;;2.90;1.90;;;24.00;69.80;;;;;;5095401;28;20039;-70
2022/08/20 01:49:34;;;;;;;2.97;1.70;;;23.90;69.70;;;;;;5091728;28;20047;-71
2022/08/20 01:52:01;;;;;;;4.03;2.08;;;24.00;69.70;;;;;;5093658;28;20040;-71
2022/08/20 01:54:26;;;;;;;2.63;1.52;;;24.00;69.80;;;;;;5110647;28;20040;-70
2022/08/20 01:57:04;;;;;;;3.95;1.88;;;24.00;69.70;;;;;;5094225;28;20047;-70
2022/08/20 01:59:29;;;;;;;4.20;1.98;;;24.00;69.70;;;;;;5094675;28;20124;-70
2022/08/20 02:01:55;;;;;;;3.00;1.88;;;23.90;69.80;;;;;;5093287;28;20115;-70
2022/08/20 02:04:21;;;;;;;2.80;1.73;;;23.90;69.80;;;;;;5093537;28;20040;-71
2022/08/20 02:06:49;;;;;;;4.40;2.13;;;24.00;69.80;;;;;;5094135;28;20487;-70
2022/08/20 02:09:15;;;;;;;4.03;1.90;;;23.90;69.70;;;;;;5093857;28;20048;-70
2022/08/20 02:11:40;;;;;;;3.58;1.77;;;23.90;69.70;;;;;;5094786;28;20090;-70
2022/08/20 02:14:07;;;;;;;3.80;2.00;;;23.90;69.70;;;;;;5094935;28;20068;-70
2022/08/20 02:16:36;;;;;;;3.58;1.95;;;23.90;69.70;;;;;;5093100;28;20399;-70
2022/08/20 02:19:11;;;;;;;2.80;1.77;;;23.90;69.70;;;;;;5094787;28;20036;-70
2022/08/20 02:21:41;;;;;;;2.63;1.65;;;23.90;69.70;;;;;;5094262;28;20044;-70
2022/08/20 02:24:07;;;;;;;3.17;1.90;;;23.90;69.70;;;;;;5093710;28;20090;-70
2022/08/20 02:26:36;;;;;;;2.75;1.63;;;23.90;69.70;;;;;;5094103;28;20827;-70
2022/08/20 02:29:03;;;;;;;2.70;1.80;;;23.90;69.70;;;;;;5094422;28;20052;-71
2022/08/20 02:31:29;;;;;;;3.47;1.75;;;23.90;69.70;;;;;;5091773;28;20052;-70
2022/08/20 02:33:55;;;;;;;2.53;1.90;;;23.90;69.70;;;;;;5094343;28;20496;-70
2022/08/20 02:36:21;;;;;;;2.55;1.48;;;23.90;69.80;;;;;;5093781;28;20044;-71
2022/08/20 02:38:46;;;;;;;3.42;1.85;;;23.90;69.80;;;;;;5092445;28;20044;-70
2022/08/20 02:41:12;;;;;;;3.67;1.60;;;23.90;69.80;;;;;;5093851;28;20059;-70
2022/08/20 02:43:37;;;;;;;2.88;1.70;;;23.90;69.70;;;;;;5093805;28;20040;-70
2022/08/20 02:46:04;;;;;;;3.42;1.90;;;23.90;69.80;;;;;;5092936;28;20433;-70
2022/08/20 02:48:30;;;;;;;2.92;1.80;;;23.90;69.80;;;;;;5093501;28;20063;-70
2022/08/20 02:51:00;;;;;;;2.83;1.60;;;23.90;69.80;;;;;;5093444;28;20419;-70
2022/08/20 02:53:26;;;;;;;3.10;1.85;;;23.90;69.80;;;;;;5093495;28;20052;-70
2022/08/20 02:55:52;;;;;;;3.75;1.77;;;23.90;69.80;;;;;;5093910;28;20044;-70
2022/08/20 02:58:18;;;;;;;2.92;1.85;;;23.90;69.80;;;;;;5091359;28;20842;-70
2022/08/20 03:00:43;;;;;;;2.72;1.50;;;23.90;69.80;;;;;;5093557;28;20048;-70
2022/08/20 03:03:09;;;;;;;3.17;1.90;;;23.90;69.80;;;;;;5093718;28;20047;-71
2022/08/20 03:05:35;;;;;;;3.05;1.90;;;23.90;69.80;;;;;;5092740;28;20071;-70
2022/08/20 03:08:01;;;;;;;3.05;1.50;;;23.90;69.90;;;;;;5094137;28;20055;-70
2022/08/20 03:10:29;;;;;;;2.45;1.60;;;23.90;69.80;;;;;;5093417;28;20032;-70
2022/08/20 03:12:55;;;;;;;2.38;1.65;;;23.90;69.80;;;;;;5092792;28;20048;-70
2022/08/20 03:15:20;;;;;;;2.40;1.52;;;23.80;69.70;;;;;;5092909;28;20058;-70
2022/08/20 03:17:46;;;;;;;1.98;1.42;;;23.90;69.80;;;;;;5093164;28;20488;-70
2022/08/20 03:20:12;;;;;;;4.18;1.67;;;23.80;69.70;;;;;;5092760;28;20044;-70
2022/08/20 03:22:38;;;;;;;2.13;1.58;;;23.80;69.70;;;;;;5091977;28;20044;-70
2022/08/20 03:25:04;;;;;;;3.17;1.60;;;23.80;69.80;;;;;;5093268;28;20044;-70
2022/08/20 03:27:29;;;;;;;2.45;1.40;;;23.80;69.80;;;;;;5091756;28;20043;-70
2022/08/20 03:29:55;;;;;;;2.17;1.38;;;23.80;69.80;;;;;;5093039;28;20503;-70
2022/08/20 03:32:21;;;;;;;2.30;1.70;;;23.80;69.70;;;;;;5092785;28;20499;-71
2022/08/20 03:34:46;;;;;;;3.53;1.60;;;23.80;69.80;;;;;;5092612;28;20052;-70
2022/08/20 03:37:12;;;;;;;3.60;1.58;;;23.80;69.80;;;;;;5092975;28;20040;-70
2022/08/20 03:39:38;;;;;;;1.80;1.35;;;23.80;69.90;;;;;;5092985;28;20090;-71
2022/08/20 03:42:03;;;;;;;2.30;1.40;;;23.80;69.90;;;;;;5092176;28;20044;-70
2022/08/20 03:44:29;;;;;;;2.85;1.50;;;23.80;69.90;;;;;;5092888;28;20383;-69
2022/08/20 03:46:55;;;;;;;3.20;1.50;;;23.80;69.90;;;;;;5092990;28;20100;-70
2022/08/20 03:49:22;;;;;;;2.05;1.42;;;23.80;69.90;;;;;;5091910;28;20039;-70
2022/08/20 03:51:48;;;;;;;2.95;1.23;;;23.80;69.90;;;;;;5092938;28;20055;-70
2022/08/20 03:54:14;;;;;;;3.15;1.70;;;23.80;69.90;;;;;;5092214;28;20035;-70
2022/08/20 03:56:39;;;;;;;3.65;1.75;;;23.80;69.90;;;;;;5092833;28;20044;-70
2022/08/20 03:59:05;;;;;;;1.65;1.40;;;23.80;69.90;;;;;;5092561;28;20043;-70
2022/08/20 04:01:30;;;;;;;2.35;1.42;;;23.80;69.90;;;;;;5091096;28;20119;-71
2022/08/20 04:03:57;;;;;;;2.53;1.67;;;23.80;69.90;;;;;;5092141;28;20040;-70
2022/08/20 04:06:23;;;;;;;2.35;1.50;;;23.80;69.90;;;;;;5091759;28;20440;-70
2022/08/20 04:08:49;;;;;;;3.22;1.55;;;23.80;69.90;;;;;;5091866;28;20135;-70
2022/08/20 04:11:14;;;;;;;1.80;1.30;;;23.80;69.90;;;;;;5092161;28;20119;-70
2022/08/20 04:13:40;;;;;;;2.78;1.60;;;23.80;69.90;;;;;;5092766;28;20130;-70
2022/08/20 04:16:07;;;;;;;2.25;1.27;;;23.70;69.90;;;;;;5091768;28;20036;-70
2022/08/20 04:18:35;;;;;;;2.83;1.57;;;23.70;69.90;;;;;;5092129;28;20044;-70
2022/08/20 04:21:00;;;;;;;2.90;1.48;;;23.70;69.90;;;;;;5092510;28;20298;-70
2022/08/20 04:23:26;;;;;;;2.17;1.40;;;23.70;69.90;;;;;;5091204;28;20066;-70
2022/08/20 04:25:51;;;;;;;2.88;1.30;;;23.70;69.90;;;;;;5092420;28;20097;-70
2022/08/20 04:28:28;;;;;;;1.85;1.40;;;23.70;69.90;;;;;;5092258;28;20040;-70
2022/08/20 04:30:55;;;;;;;3.30;1.73;;;23.70;69.90;;;;;;5091413;28;20052;-70
2022/08/20 04:33:23;;;;;;;2.08;1.58;;;23.70;69.90;;;;;;5092199;28;20124;-70
2022/08/20 04:35:48;;;;;;;3.23;1.53;;;23.70;69.90;;;;;;5092559;28;20044;-70
2022/08/20 04:38:15;;;;;;;2.17;1.30;;;23.70;69.90;;;;;;5090954;28;20039;-71
2022/08/20 04:40:53;;;;;;;2.25;1.30;;;23.70;69.90;;;;;;5095787;28;20069;-70
2022/08/20 04:43:22;;;;;;;2.90;1.80;;;23.70;69.90;;;;;;5096203;28;20079;-70
2022/08/20 04:45:48;;;;;;;2.60;1.48;;;23.70;69.90;;;;;;5095773;28;20051;-70
2022/08/20 04:48:13;;;;;;;2.22;1.52;;;23.70;69.90;;;;;;5096246;28;20044;-70
2022/08/20 04:50:40;;;;;;;1.63;1.17;;;23.70;69.90;;;;;;5095664;28;20071;-70
2022/08/20 04:53:07;;;;;;;2.80;1.40;;;23.70;69.90;;;;;;5096055;28;20407;-70
2022/08/20 04:55:33;;;;;;;2.50;1.50;;;23.70;69.90;;;;;;5095704;28;20372;-70
2022/08/20 04:58:06;;;;;;;2.08;1.13;;;23.70;69.90;;;;;;5095451;28;20394;-70
2022/08/20 05:00:32;;;;;;;1.50;1.20;;;23.70;69.90;;;;;;5095882;28;20051;-70
2022/08/20 05:02:57;;;;;;;2.13;1.52;;;23.70;69.90;;;;;;5096131;28;20040;-70
2022/08/20 05:05:23;;;;;;;1.92;1.20;;;23.70;69.90;;;;;;5094585;28;20068;-70
2022/08/20 05:07:49;;;;;;;1.70;1.30;;;23.70;69.90;;;;;;5096018;28;20556;-70
2022/08/20 05:10:15;;;;;;;1.92;1.23;;;23.70;69.90;;;;;;5095698;28;20048;-71
2022/08/20 05:12:41;;;;;;;2.58;1.30;;;23.70;69.90;;;;;;5095187;28;20086;-70
2022/08/20 05:15:10;;;;;;;1.80;1.15;;;23.70;69.90;;;;;;5095610;28;20082;-70
2022/08/20 05:17:40;;;;;;;2.45;1.33;;;23.70;69.90;;;;;;5095780;28;20487;-71
2022/08/20 05:20:09;;;;;;;2.40;1.50;;;23.70;69.90;;;;;;5095239;28;20132;-70
2022/08/20 05:22:35;;;;;;;2.65;1.40;;;23.70;69.90;;;;;;5095175;28;20177;-68
2022/08/20 05:25:00;;;;;;;1.60;1.08;;;23.70;69.90;;;;;;5095906;28;20040;-68
2022/08/20 05:27:27;;;;;;;2.13;1.15;;;23.70;70.00;;;;;;5094419;28;20104;-69
2022/08/20 05:29:54;;;;;;;1.60;1.15;;;23.70;70.00;;;;;;5095492;28;20044;-69
2022/08/20 05:32:20;;;;;;;2.27;1.50;;;23.70;69.90;;;;;;5095233;28;20044;-68
2022/08/20 05:34:46;;;;;;;5.25;2.13;;;23.70;69.80;;;;;;5093543;28;20383;-68
2022/08/20 05:37:12;;;;;;;4.78;1.50;;;23.70;70.10;;;;;;5093233;28;20472;-72
2022/08/20 05:39:38;;;;;;;6.32;1.50;;;23.70;70.30;;;;;;5095077;28;20115;-71
2022/08/20 05:42:03;;;;;;;6.72;1.58;;;23.70;70.30;;;;;;5094597;28;20048;-71
2022/08/20 05:44:30;;;;;;;5.35;1.95;;;23.70;70.40;;;;;;5095247;28;20040;-71
2022/08/20 05:46:55;;;;;;;5.15;1.83;;;23.70;70.40;;;;;;5093188;28;20047;-71
2022/08/20 05:49:21;;;;;;;5.50;1.50;;;23.70;70.40;;;;;;5094689;28;20051;-71
2022/08/20 05:51:47;;;;;;;5.95;1.50;;;23.70;70.40;;;;;;5094677;28;20032;-71
2022/08/20 05:54:13;;;;;;;7.32;1.63;;;23.70;70.50;;;;;;5094606;28;20097;-67
2022/08/20 05:56:39;;;;;;;3.58;1.60;;;23.70;70.50;;;;;;5093603;28;20036;-65
2022/08/20 05:59:05;;;;;;;4.47;1.40;;;23.70;70.40;;;;;;5094879;28;20043;-71
2022/08/20 06:01:31;;;;;;;2.33;1.27;;;23.70;70.30;;;;;;5092221;28;20044;-68
2022/08/20 06:06:41;;;;;;;5.15;1.65;;;23.70;70.40;;;;;;5095064;28;20076;-67
2022/08/20 06:09:07;;;;;;;3.60;1.45;;;23.70;70.40;;;;;;5094317;28;20071;-67
2022/08/20 06:11:32;;;;;;;6.63;1.58;;;23.70;70.50;;;;;;5092965;28;20115;-67
2022/08/20 06:13:58;;;;;;;7.07;1.65;;;23.70;70.40;;;;;;5093456;28;20040;-67
2022/08/20 06:16:24;;;;;;;5.70;1.77;;;23.70;70.40;;;;;;5093576;28;20495;-68
2022/08/20 06:18:50;;;;;;;4.07;1.30;;;23.70;70.50;;;;;;5093178;28;20036;-68
2022/08/20 06:21:15;;;;;;;12.05;1.65;;;23.70;70.50;;;;;;5094477;28;20058;-69
2022/08/20 06:23:41;;;;;;;4.78;1.40;;;23.70;71.10;;;;;;5093865;28;20069;-69
2022/08/20 06:26:08;;;;;;;4.72;1.40;;;23.70;70.40;;;;;;5094620;28;20508;-69
2022/08/20 06:28:34;;;;;;;5.70;1.70;;;23.70;70.20;;;;;;5094348;28;20451;-69
2022/08/20 06:30:59;;;;;;;3.85;1.58;;;23.70;70.20;;;;;;5093421;28;20123;-69
2022/08/20 06:33:25;;;;;;;5.80;1.80;;;23.70;70.20;;;;;;5094100;28;20201;-69
2022/08/20 06:35:50;;;;;;;5.97;1.40;;;23.70;70.30;;;;;;5094370;28;20040;-69
2022/08/20 06:38:16;;;;;;;6.65;1.88;;;23.70;70.30;;;;;;5092839;28;20040;-69
2022/08/20 06:40:41;;;;;;;7.97;1.70;;;23.70;70.20;;;;;;5094173;28;20044;-69
2022/08/20 06:43:10;;;;;;;5.88;1.73;;;23.80;70.30;;;;;;5093245;28;20127;-68
2022/08/20 06:45:37;;;;;;;5.53;1.30;;;23.80;70.30;;;;;;5093846;28;20090;-69
2022/08/20 06:48:06;;;;;;;5.70;1.50;;;23.80;70.30;;;;;;5093786;28;20515;-72
2022/08/20 06:50:38;;;;;;;4.57;1.55;;;23.80;70.40;;;;;;5093251;28;20119;-68
2022/08/20 06:53:05;;;;;;;5.07;1.17;;;23.80;70.30;;;;;;5094301;28;20044;-66
2022/08/20 06:55:31;;;;;;;3.47;1.48;;;23.80;70.20;;;;;;5093636;28;20495;-73
2022/08/20 06:58:01;;;;;;;7.40;1.73;;;23.70;70.00;;;;;;5093280;28;20044;-71
2022/08/20 07:00:27;;;;;;;4.15;1.63;;;23.70;70.60;;;;;;5091132;28;20036;-69
2022/08/20 07:02:53;;;;;;;5.45;1.52;;;23.80;70.00;;;;;;5092998;28;20086;-69
2022/08/20 07:05:18;;;;;;;4.70;1.40;;;23.80;70.00;;;;;;5092607;28;20036;-69
2022/08/20 07:07:46;;;;;;;4.68;1.27;;;23.80;69.90;;;;;;5092689;28;20044;-69
2022/08/20 07:10:12;;;;;;;7.38;1.40;;;23.80;69.80;;;;;;5092443;28;20036;-69
2022/08/20 07:12:37;;;;;;;5.00;1.30;;;23.80;69.70;;;;;;5092374;28;20101;-68
2022/08/20 07:15:07;;;;;;;3.80;1.65;;;23.80;69.70;;;;;;5093003;28;20044;-69
2022/08/20 07:17:33;;;;;;;5.47;1.33;;;23.80;69.70;;;;;;5090151;28;20466;-68
2022/08/20 07:20:06;;;;;;;4.00;1.25;;;23.80;69.80;;;;;;5092533;28;20039;-69
2022/08/20 07:22:35;;;;;;;4.57;1.30;;;23.80;69.90;;;;;;5092466;28;20127;-68
2022/08/20 07:25:02;;;;;;;3.92;1.58;;;23.80;69.90;;;;;;5093045;28;20564;-69
2022/08/20 07:27:28;;;;;;;5.13;1.50;;;23.90;70.00;;;;;;5092370;28;20043;-69
2022/08/20 07:32:38;;;;;;;2.78;1.17;;;23.90;70.00;;;;;;5092774;28;20044;-68
2022/08/20 07:35:05;;;;;;;5.95;1.50;;;23.90;70.10;;;;;;5093099;28;20065;-69
2022/08/20 07:37:31;;;;;;;4.53;1.40;;;23.90;70.00;;;;;;5093111;28;20072;-69
2022/08/20 07:39:57;;;;;;;4.65;1.38;;;23.90;70.00;;;;;;5090967;28;20075;-69
2022/08/20 07:42:22;;;;;;;4.20;1.23;;;23.90;70.00;;;;;;5091512;28;20132;-69
2022/08/20 07:44:48;;;;;;;5.35;1.35;;;23.90;70.10;;;;;;5092905;28;20511;-68
2022/08/20 07:47:17;;;;;;;4.38;1.30;;;23.90;70.10;;;;;;5092230;28;20485;-70
2022/08/20 07:49:43;;;;;;;3.83;1.30;;;23.90;70.10;;;;;;5092812;28;20059;-68
2022/08/20 07:52:08;;;;;;;3.00;1.20;;;23.90;70.10;;;;;;5092830;28;20040;-66
2022/08/20 07:54:36;;;;;;;7.35;1.50;;;23.90;70.20;;;;;;5091368;28;20051;-67
2022/08/20 07:57:02;;;;;;;4.50;1.25;;;23.90;70.30;;;;;;5091315;28;20395;-68
2022/08/20 07:59:28;;;;;;;3.72;1.05;;;23.90;70.20;;;;;;5092561;28;20040;-68
2022/08/20 08:01:54;;;;;;;4.10;1.75;;;24.00;70.20;;;;;;5090909;28;20035;-69
2022/08/20 08:04:19;;;;;;;4.90;1.33;;;24.00;70.10;;;;;;5092665;28;20391;-69
2022/08/20 08:06:45;;;;;;;2.97;1.17;;;24.00;70.10;;;;;;5092718;28;20399;-68
2022/08/20 08:09:12;;;;;;;3.50;1.27;;;24.00;70.10;;;;;;5091738;28;20399;-68
2022/08/20 08:11:39;;;;;;;5.28;1.75;;;24.00;70.10;;;;;;5091070;28;20032;-68
2022/08/20 08:14:06;;;;;;;4.07;1.33;;;24.00;70.00;;;;;;5092415;28;20048;-69
2022/08/20 08:16:33;;;;;;;4.43;1.15;;;24.00;70.00;;;;;;5091558;28;20040;-68
2022/08/20 08:18:58;;;;;;;2.92;1.10;;;24.10;70.10;;;;;;5092816;28;20062;-68
2022/08/20 08:21:24;;;;;;;5.00;1.85;;;24.10;70.10;;;;;;5090848;28;20040;-68
2022/08/20 08:23:49;;;;;;;4.05;1.23;;;24.10;70.30;;;;;;5091825;28;20044;-69
2022/08/20 08:26:15;;;;;;;2.40;1.00;;;24.10;70.30;;;;;;5092177;28;20044;-68
2022/08/20 08:28:43;;;;;;;2.25;1.10;;;24.10;70.20;;;;;;5091679;28;20045;-69
2022/08/20 08:31:09;;;;;;;2.03;1.10;;;24.10;70.20;;;;;;5091062;28;20048;-67
2022/08/20 08:33:34;;;;;;;6.45;1.13;;;24.10;70.20;;;;;;5092299;28;20048;-68
2022/08/20 08:36:05;;;;;;;4.32;1.10;;;24.10;70.10;;;;;;5091538;28;20047;-68
2022/08/20 08:38:33;;;;;;;4.10;1.25;;;24.10;70.10;;;;;;5092142;28;20044;-68
2022/08/20 08:41:11;;;;;;;4.60;1.15;;;24.20;70.10;;;;;;5092525;28;20498;-68
2022/08/20 08:43:36;;;;;;;4.18;0.90;;;24.20;70.00;;;;;;5108305;28;20403;-67
2022/08/20 08:46:07;;;;;;;3.90;1.20;;;24.20;70.00;;;;;;5092285;28;20480;-67
2022/08/20 08:48:36;;;;;;;4.60;1.23;;;24.20;69.90;;;;;;5090669;28;20074;-68
2022/08/20 08:51:06;;;;;;;5.65;1.33;;;24.30;70.00;;;;;;5090691;28;20051;-67
2022/08/20 08:53:35;;;;;;;2.95;1.35;;;24.30;69.90;;;;;;5090813;28;20040;-67
2022/08/20 08:56:01;;;;;;;3.30;1.10;;;24.30;69.90;;;;;;5090840;28;20407;-68
2022/08/20 08:58:26;;;;;;;3.10;1.00;;;24.30;69.90;;;;;;5091294;28;20040;-68
2022/08/20 09:00:52;;;;;;;4.22;1.33;;;24.30;70.40;;;;;;5092081;28;20047;-67
2022/08/20 09:03:28;;;;;;;3.25;1.20;;;24.40;69.70;;;;;;5092138;28;20112;-67
2022/08/20 09:05:57;;;;;;;3.75;1.10;;;24.40;69.80;;;;;;5090458;28;20036;-68
2022/08/20 09:08:46;;;;;;;2.95;1.02;;;24.40;69.70;;;;;;5092226;28;20044;-68
2022/08/20 09:11:12;;;;;;;3.58;1.17;;;24.40;69.60;;;;;;5090343;28;20032;-68
2022/08/20 09:13:38;;;;;;;2.85;0.93;;;24.50;69.50;;;;;;5091594;28;20052;-68
2022/08/20 09:16:03;;;;;;;3.78;1.10;;;24.50;69.40;;;;;;5092053;28;20039;-64
2022/08/20 09:18:29;;;;;;;2.65;1.00;;;24.50;69.90;;;;;;5090720;28;20076;-68
2022/08/20 09:20:54;;;;;;;4.30;0.88;;;24.50;69.20;;;;;;5092131;28;20044;-67
2022/08/20 09:23:20;;;;;;;4.35;1.00;;;24.50;68.40;;;;;;5091589;28;20047;-67
2022/08/20 09:25:46;;;;;;;7.75;0.80;;;24.40;67.10;;;;;;5090049;28;20044;-68
2022/08/20 09:28:11;;;;;;;5.10;0.70;;;24.40;65.50;;;;;;5093948;28;20042;-68
2022/08/20 09:30:37;;;;;;;4.35;0.80;;;24.30;64.10;;;;;;5094560;28;20048;-68
2022/08/20 09:33:02;;;;;;;2.58;0.50;;;24.30;62.70;;;;;;5093282;28;20063;-68
2022/08/20 09:35:28;;;;;;;4.20;0.60;;;24.20;61.60;;;;;;5094846;28;20044;-69
2022/08/20 09:37:53;;;;;;;5.95;1.10;;;24.20;60.90;;;;;;5095446;28;20087;-69
2022/08/20 09:40:19;;;;;;;5.78;0.70;;;24.20;60.80;;;;;;5127177;27;20042;-66
2022/08/20 09:42:44;;;;;;;1.88;0.50;;;24.10;60.40;;;;;;5127633;27;20051;-68
2022/08/20 09:45:10;;;;;;;3.58;1.00;;;24.10;60.50;;;;;;5094642;28;20047;-67
2022/08/20 09:47:36;;;;;;;4.30;0.70;;;24.10;60.20;;;;;;5092953;28;20446;-66
2022/08/20 09:50:02;;;;;;;3.13;0.73;;;24.00;59.60;;;;;;5093515;28;20048;-66
2022/08/20 09:52:32;;;;;;;3.92;0.55;;;24.00;58.30;;;;;;5094559;28;20055;-66
2022/08/20 09:55:15;;;;;;;3.03;0.55;;;24.00;58.60;;;;;;5092882;28;20055;-69
2022/08/20 09:57:41;;;;;;;3.25;0.70;;;24.00;58.40;;;;;;5093743;28;20087;-67
2022/08/20 10:00:08;;;;;;;4.40;0.70;;;23.90;58.80;;;;;;5076132;28;20063;-66
2022/08/20 10:02:33;;;;;;;5.40;0.60;;;23.90;59.20;;;;;;5093430;28;20826;-66
2022/08/20 10:04:59;;;;;;;5.57;0.80;;;23.90;58.10;;;;;;5094770;28;20040;-66
2022/08/20 10:07:25;;;;;;;5.00;1.20;;;23.90;57.50;;;;;;5093728;28;20052;-68
2022/08/20 10:09:50;;;;;;;6.78;1.00;;;23.80;56.50;;;;;;5094479;28;20040;-65
2022/08/20 10:12:16;;;;;;;5.28;0.82;;;23.70;56.10;;;;;;5093473;28;20112;-67
2022/08/20 10:14:41;;;;;;;3.33;0.68;;;23.70;55.60;;;;;;5091286;28;20040;-64
2022/08/20 10:17:07;;;;;;;5.65;0.98;;;23.70;55.80;;;;;;5093655;28;20111;-65
2022/08/20 10:19:32;;;;;;;4.95;1.02;;;23.70;55.90;;;;;;5093584;28;20206;-65
2022/08/20 10:21:58;;;;;;;3.17;0.65;;;23.70;56.20;;;;;;5093332;28;20140;-65
2022/08/20 10:24:24;;;;;;;2.95;0.57;;;23.70;56.30;;;;;;5092721;28;20079;-65
2022/08/20 10:26:50;;;;;;;3.60;0.70;;;23.70;56.20;;;;;;5091893;28;20044;-65
2022/08/20 10:29:16;;;;;;;4.40;0.90;;;23.70;56.60;;;;;;5091390;28;20046;-65
2022/08/20 10:31:42;;;;;;;3.90;0.90;;;23.70;56.30;;;;;;5092770;28;20131;-65
2022/08/20 10:34:07;;;;;;;4.93;0.73;;;23.70;55.90;;;;;;5094257;28;20050;-63
2022/08/20 10:36:33;;;;;;;4.10;0.75;;;23.80;54.70;;;;;;5093156;28;20944;-68
2022/08/20 10:38:58;;;;;;;5.03;0.85;;;23.70;54.30;;;;;;5092709;28;20044;-66
2022/08/20 10:41:24;;;;;;;4.57;0.80;;;23.70;53.90;;;;;;5093752;28;20047;-66
2022/08/20 10:43:50;;;;;;;3.38;0.70;;;23.80;54.10;;;;;;5092298;28;20456;-67
2022/08/20 10:46:16;;;;;;;5.25;0.82;;;23.70;54.00;;;;;;5093824;28;20044;-66
2022/08/20 10:48:41;;;;;;;3.38;0.70;;;23.70;53.70;;;;;;5093976;28;20061;-66
2022/08/20 10:51:07;;;;;;;4.97;0.70;;;23.70;53.50;;;;;;5093435;28;20044;-66
2022/08/20 10:53:32;;;;;;;3.45;1.02;;;23.70;53.60;;;;;;5093757;28;20105;-66
2022/08/20 10:55:58;;;;;;;4.07;0.65;;;23.70;53.60;;;;;;5093883;28;20162;-66
2022/08/20 10:58:24;;;;;;;4.57;0.70;;;23.70;53.30;;;;;;5092978;28;20040;-67
2022/08/20 11:00:50;;;;;;;6.28;0.88;;;23.70;53.30;;;;;;5093567;28;20075;-66
2022/08/20 11:03:15;;;;;;;4.82;0.80;;;23.70;53.40;;;;;;5093177;28;20040;-66
2022/08/20 11:05:41;;;;;;;5.25;0.80;;;23.70;53.60;;;;;;5093657;28;20130;-66
2022/08/20 11:08:06;;;;;;;5.03;0.80;;;23.70;53.70;;;;;;5093876;28;20119;-66
2022/08/20 11:10:33;;;;;;;3.95;0.73;;;23.70;53.90;;;;;;5091245;28;20408;-66
2022/08/20 11:12:59;;;;;;;3.65;0.60;;;23.70;54.20;;;;;;5093275;28;20400;-66
2022/08/20 11:15:25;;;;;;;3.85;0.57;;;23.70;54.40;;;;;;5093242;28;20479;-67
2022/08/20 11:17:51;;;;;;;4.30;0.52;;;23.70;54.20;;;;;;5092645;28;20115;-67
2022/08/20 11:20:17;;;;;;;3.42;0.68;;;23.70;54.20;;;;;;5093200;28;20406;-67
2022/08/20 11:22:43;;;;;;;3.47;0.70;;;23.70;54.00;;;;;;5093343;28;20040;-67
2022/08/20 11:25:09;;;;;;;4.90;0.82;;;23.70;54.00;;;;;;5091279;28;20451;-67
2022/08/20 11:27:39;;;;;;;5.80;1.00;;;23.70;53.90;;;;;;5093260;28;20458;-67
2022/08/20 11:30:07;;;;;;;3.47;0.77;;;23.70;53.80;;;;;;5074972;28;20055;-67
2022/08/20 11:32:33;;;;;;;5.38;0.70;;;23.70;53.80;;;;;;5092035;28;20051;-67
2022/08/20 11:35:00;;;;;;;4.53;0.60;;;23.80;54.00;;;;;;5092342;28;20052;-67
2022/08/20 11:37:25;;;;;;;3.22;0.50;;;23.80;54.10;;;;;;5092514;28;20130;-67
2022/08/20 11:39:51;;;;;;;5.40;1.00;;;23.80;53.90;;;;;;5074390;28;20123;-66
2022/08/20 11:42:16;;;;;;;5.75;0.80;;;23.80;53.70;;;;;;5092706;28;20134;-66
2022/08/20 11:44:42;;;;;;;4.55;0.70;;;23.80;53.40;;;;;;5091983;28;20032;-67
2022/08/20 11:47:07;;;;;;;5.10;1.02;;;23.80;53.30;;;;;;5125125;27;20048;-67
2022/08/20 11:49:34;;;;;;;4.47;1.02;;;23.80;53.40;;;;;;5074048;28;20568;-68
2022/08/20 11:52:00;;;;;;;7.78;0.68;;;23.80;53.50;;;;;;5092570;28;20585;-67
2022/08/20 11:54:27;;;;;;;4.70;0.70;;;23.80;53.70;;;;;;5090646;28;20059;-67
2022/08/20 11:56:56;;;;;;;6.63;0.90;;;23.80;54.60;;;;;;5092807;28;20048;-67
2022/08/20 11:59:22;;;;;;;3.97;0.68;;;23.80;54.00;;;;;;5092700;28;20051;-66
2022/08/20 12:01:48;;;;;;;4.95;0.70;;;23.80;54.00;;;;;;5092020;28;20043;-67
2022/08/20 12:04:14;;;;;;;6.03;0.90;;;23.80;53.80;;;;;;5092324;28;20044;-67
2022/08/20 12:06:39;;;;;;;4.97;0.70;;;23.80;53.60;;;;;;5090527;28;20048;-66
2022/08/20 12:09:05;;;;;;;3.53;0.50;;;23.80;53.80;;;;;;5092683;28;20491;-67
2022/08/20 12:11:30;;;;;;;4.18;0.98;;;23.80;53.70;;;;;;5090836;28;20089;-67
2022/08/20 12:13:56;;;;;;;3.97;0.85;;;23.80;54.00;;;;;;5091581;28;20056;-70
2022/08/20 12:16:21;;;;;;;5.05;0.80;;;23.80;53.80;;;;;;5092385;28;20048;-66
2022/08/20 12:18:47;;;;;;;4.47;0.70;;;23.80;53.70;;;;;;5091193;28;20047;-66
2022/08/20 12:21:13;;;;;;;4.20;0.60;;;23.80;53.70;;;;;;5091928;28;20437;-67
2022/08/20 12:23:39;;;;;;;3.13;0.60;;;23.80;53.50;;;;;;5092657;28;20032;-66
2022/08/20 12:26:04;;;;;;;3.28;0.63;;;23.80;53.20;;;;;;5090840;28;20434;-66
2022/08/20 12:28:30;;;;;;;4.75;0.80;;;23.80;53.00;;;;;;5091547;28;20123;-66
2022/08/20 12:30:56;;;;;;;4.53;1.20;;;23.80;52.60;;;;;;5092084;28;20055;-66
2022/08/20 12:33:21;;;;;;;3.90;0.70;;;23.80;52.30;;;;;;5090679;28;20040;-66
2022/08/20 12:35:47;;;;;;;3.78;0.73;;;23.80;51.80;;;;;;5091785;28;20084;-66
2022/08/20 12:38:12;;;;;;;6.00;0.73;;;23.80;51.90;;;;;;5092188;28;20483;-66
2022/08/20 12:40:38;;;;;;;4.80;0.70;;;23.80;51.80;;;;;;5091845;28;20040;-66
2022/08/20 12:43:04;;;;;;;3.17;0.80;;;23.80;51.70;;;;;;5091449;28;20497;-66
2022/08/20 12:45:30;;;;;;;5.35;0.60;;;23.80;51.80;;;;;;5091987;28;20040;-66
2022/08/20 12:48:09;;;;;;;5.88;0.90;;;23.80;51.90;;;;;;5091852;28;20040;-66
2022/08/20 12:50:35;;;;;;;7.32;1.00;;;23.80;51.40;;;;;;5090887;28;20082;-66
2022/08/20 12:53:01;;;;;;;7.53;1.08;;;23.80;51.20;;;;;;5092200;28;20505;-66